sensor_id;sensor_type;location;lat;lon;timestamp;P1;durP1;ratioP1;P2;durP2;ratioP2
79036;SDS011;68434;59.896;30.474;2023-06-10T00:02:15;4.55;;;2.42;;
79036;SDS011;68434;59.896;30.474;2023-06-10T00:04:43;3.92;;;2.40;;
79036;SDS011;68434;59.896;30.474;2023-06-10T00:09:39;4.78;;;2.35;;
79036;SDS011;68434;59.896;30.474;2023-06-10T00:12:08;3.80;;;2.05;;
79036;SDS011;68434;59.896;30.474;2023-06-10T00:14:38;4.50;;;2.35;;
79036;SDS011;68434;59.896;30.474;2023-06-10T00:17:07;4.45;;;2.10;;
79036;SDS011;68434;59.896;30.474;2023-06-10T00:19:35;3.97;;;2.28;;
79036;SDS011;68434;59.896;30.474;2023-06-10T00:22:07;4.57;;;2.30;;
79036;SDS011;68434;59.896;30.474;2023-06-10T00:24:36;2.53;;;1.75;;
79036;SDS011;68434;59.896;30.474;2023-06-10T00:27:05;5.35;;;2.80;;
79036;SDS011;68434;59.896;30.474;2023-06-10T00:29:33;4.50;;;2.78;;
79036;SDS011;68434;59.896;30.474;2023-06-10T00:32:03;6.28;;;3.28;;
79036;SDS011;68434;59.896;30.474;2023-06-10T00:34:33;4.25;;;2.63;;
79036;SDS011;68434;59.896;30.474;2023-06-10T00:37:01;4.07;;;2.20;;
79036;SDS011;68434;59.896;30.474;2023-06-10T00:39:29;3.90;;;2.20;;
79036;SDS011;68434;59.896;30.474;2023-06-10T00:41:57;3.67;;;2.08;;
79036;SDS011;68434;59.896;30.474;2023-06-10T00:44:26;3.92;;;2.42;;
79036;SDS011;68434;59.896;30.474;2023-06-10T00:46:54;3.20;;;2.13;;
79036;SDS011;68434;59.896;30.474;2023-06-10T00:49:23;3.50;;;2.20;;
79036;SDS011;68434;59.896;30.474;2023-06-10T00:51:52;3.10;;;2.00;;
79036;SDS011;68434;59.896;30.474;2023-06-10T00:54:21;3.05;;;1.90;;
79036;SDS011;68434;59.896;30.474;2023-06-10T00:56:50;4.00;;;1.75;;
79036;SDS011;68434;59.896;30.474;2023-06-10T00:59:18;3.47;;;2.20;;
79036;SDS011;68434;59.896;30.474;2023-06-10T01:01:45;3.05;;;1.85;;
79036;SDS011;68434;59.896;30.474;2023-06-10T01:04:13;5.60;;;2.35;;
79036;SDS011;68434;59.896;30.474;2023-06-10T01:06:46;4.22;;;2.38;;
79036;SDS011;68434;59.896;30.474;2023-06-10T01:09:21;2.80;;;1.77;;
79036;SDS011;68434;59.896;30.474;2023-06-10T01:11:58;3.60;;;2.05;;
79036;SDS011;68434;59.896;30.474;2023-06-10T01:14:36;2.88;;;1.80;;
79036;SDS011;68434;59.896;30.474;2023-06-10T01:17:04;3.28;;;2.00;;
79036;SDS011;68434;59.896;30.474;2023-06-10T01:19:35;3.58;;;2.05;;
79036;SDS011;68434;59.896;30.474;2023-06-10T01:22:05;3.58;;;2.10;;
79036;SDS011;68434;59.896;30.474;2023-06-10T01:24:34;5.20;;;2.00;;
79036;SDS011;68434;59.896;30.474;2023-06-10T01:27:02;4.38;;;2.03;;
79036;SDS011;68434;59.896;30.474;2023-06-10T01:29:33;2.85;;;1.45;;
79036;SDS011;68434;59.896;30.474;2023-06-10T01:32:10;2.72;;;1.63;;
79036;SDS011;68434;59.896;30.474;2023-06-10T01:34:43;3.30;;;1.73;;
79036;SDS011;68434;59.896;30.474;2023-06-10T01:37:13;2.67;;;1.60;;
79036;SDS011;68434;59.896;30.474;2023-06-10T01:39:43;3.97;;;1.90;;
79036;SDS011;68434;59.896;30.474;2023-06-10T01:42:12;3.08;;;2.13;;
79036;SDS011;68434;59.896;30.474;2023-06-10T01:44:41;3.88;;;1.83;;
79036;SDS011;68434;59.896;30.474;2023-06-10T01:47:09;3.03;;;1.52;;
79036;SDS011;68434;59.896;30.474;2023-06-10T01:49:37;3.53;;;1.42;;
79036;SDS011;68434;59.896;30.474;2023-06-10T01:52:07;3.47;;;1.88;;
79036;SDS011;68434;59.896;30.474;2023-06-10T01:54:37;3.20;;;1.98;;
79036;SDS011;68434;59.896;30.474;2023-06-10T01:57:05;4.70;;;1.80;;
79036;SDS011;68434;59.896;30.474;2023-06-10T01:59:33;2.80;;;1.80;;
79036;SDS011;68434;59.896;30.474;2023-06-10T02:02:03;4.70;;;2.35;;
79036;SDS011;68434;59.896;30.474;2023-06-10T02:04:31;6.28;;;3.38;;
79036;SDS011;68434;59.896;30.474;2023-06-10T02:07:01;3.75;;;2.22;;
79036;SDS011;68434;59.896;30.474;2023-06-10T02:09:31;4.78;;;2.92;;
79036;SDS011;68434;59.896;30.474;2023-06-10T02:12:03;3.00;;;1.80;;
79036;SDS011;68434;59.896;30.474;2023-06-10T02:14:34;3.72;;;2.03;;
79036;SDS011;68434;59.896;30.474;2023-06-10T02:17:02;3.95;;;2.30;;
79036;SDS011;68434;59.896;30.474;2023-06-10T02:19:30;3.38;;;1.55;;
79036;SDS011;68434;59.896;30.474;2023-06-10T02:21:58;3.63;;;1.63;;
79036;SDS011;68434;59.896;30.474;2023-06-10T02:24:26;2.90;;;1.90;;
79036;SDS011;68434;59.896;30.474;2023-06-10T02:26:53;3.85;;;2.00;;
79036;SDS011;68434;59.896;30.474;2023-06-10T02:29:23;4.68;;;2.15;;
79036;SDS011;68434;59.896;30.474;2023-06-10T02:31:51;2.47;;;1.70;;
79036;SDS011;68434;59.896;30.474;2023-06-10T02:34:19;3.75;;;1.98;;
79036;SDS011;68434;59.896;30.474;2023-06-10T02:36:47;3.97;;;1.70;;
79036;SDS011;68434;59.896;30.474;2023-06-10T02:39:19;3.58;;;2.10;;
79036;SDS011;68434;59.896;30.474;2023-06-10T02:41:47;3.05;;;1.65;;
79036;SDS011;68434;59.896;30.474;2023-06-10T02:44:16;3.47;;;2.13;;
79036;SDS011;68434;59.896;30.474;2023-06-10T02:46:48;2.97;;;1.75;;
79036;SDS011;68434;59.896;30.474;2023-06-10T02:49:16;3.95;;;1.70;;
79036;SDS011;68434;59.896;30.474;2023-06-10T02:51:45;2.80;;;1.58;;
79036;SDS011;68434;59.896;30.474;2023-06-10T02:54:13;3.10;;;1.75;;
79036;SDS011;68434;59.896;30.474;2023-06-10T02:56:43;2.65;;;1.70;;
79036;SDS011;68434;59.896;30.474;2023-06-10T02:59:18;2.50;;;1.60;;
79036;SDS011;68434;59.896;30.474;2023-06-10T03:01:47;3.53;;;1.70;;
79036;SDS011;68434;59.896;30.474;2023-06-10T03:04:15;4.05;;;1.90;;
79036;SDS011;68434;59.896;30.474;2023-06-10T03:06:52;2.97;;;1.90;;
79036;SDS011;68434;59.896;30.474;2023-06-10T03:09:31;2.85;;;1.60;;
79036;SDS011;68434;59.896;30.474;2023-06-10T03:12:01;3.05;;;1.80;;
79036;SDS011;68434;59.896;30.474;2023-06-10T03:14:34;2.70;;;1.77;;
79036;SDS011;68434;59.896;30.474;2023-06-10T03:17:05;4.18;;;1.52;;
79036;SDS011;68434;59.896;30.474;2023-06-10T03:19:35;4.28;;;1.80;;
79036;SDS011;68434;59.896;30.474;2023-06-10T03:22:07;3.25;;;1.73;;
79036;SDS011;68434;59.896;30.474;2023-06-10T03:24:40;3.38;;;1.98;;
79036;SDS011;68434;59.896;30.474;2023-06-10T03:27:10;3.55;;;2.00;;
79036;SDS011;68434;59.896;30.474;2023-06-10T03:29:41;3.08;;;1.65;;
79036;SDS011;68434;59.896;30.474;2023-06-10T03:32:11;4.93;;;1.90;;
79036;SDS011;68434;59.896;30.474;2023-06-10T03:34:40;4.20;;;1.63;;
79036;SDS011;68434;59.896;30.474;2023-06-10T03:37:09;4.28;;;1.88;;
79036;SDS011;68434;59.896;30.474;2023-06-10T03:39:36;2.38;;;1.60;;
79036;SDS011;68434;59.896;30.474;2023-06-10T03:42:13;3.08;;;1.67;;
79036;SDS011;68434;59.896;30.474;2023-06-10T03:44:41;3.50;;;1.80;;
79036;SDS011;68434;59.896;30.474;2023-06-10T03:47:11;2.50;;;1.65;;
79036;SDS011;68434;59.896;30.474;2023-06-10T03:49:39;2.90;;;1.38;;
79036;SDS011;68434;59.896;30.474;2023-06-10T03:52:07;4.25;;;2.03;;
79036;SDS011;68434;59.896;30.474;2023-06-10T03:54:35;2.85;;;1.70;;
79036;SDS011;68434;59.896;30.474;2023-06-10T03:57:03;2.33;;;1.55;;
79036;SDS011;68434;59.896;30.474;2023-06-10T03:59:32;2.40;;;1.70;;
79036;SDS011;68434;59.896;30.474;2023-06-10T04:02:01;3.00;;;1.77;;
79036;SDS011;68434;59.896;30.474;2023-06-10T04:04:32;3.38;;;2.00;;
79036;SDS011;68434;59.896;30.474;2023-06-10T04:07:00;2.85;;;1.70;;
79036;SDS011;68434;59.896;30.474;2023-06-10T04:09:28;2.83;;;1.88;;
79036;SDS011;68434;59.896;30.474;2023-06-10T04:11:56;2.88;;;1.80;;
79036;SDS011;68434;59.896;30.474;2023-06-10T04:14:24;2.30;;;1.60;;
79036;SDS011;68434;59.896;30.474;2023-06-10T04:16:53;2.90;;;1.45;;
79036;SDS011;68434;59.896;30.474;2023-06-10T04:19:21;3.65;;;1.70;;
79036;SDS011;68434;59.896;30.474;2023-06-10T04:21:51;4.20;;;2.03;;
79036;SDS011;68434;59.896;30.474;2023-06-10T04:24:20;3.05;;;1.48;;
79036;SDS011;68434;59.896;30.474;2023-06-10T04:26:48;4.28;;;1.85;;
79036;SDS011;68434;59.896;30.474;2023-06-10T04:29:16;4.30;;;1.65;;
79036;SDS011;68434;59.896;30.474;2023-06-10T04:31:44;2.70;;;1.67;;
79036;SDS011;68434;59.896;30.474;2023-06-10T04:34:13;2.90;;;1.67;;
79036;SDS011;68434;59.896;30.474;2023-06-10T04:36:41;3.50;;;1.60;;
79036;SDS011;68434;59.896;30.474;2023-06-10T04:39:11;2.70;;;1.80;;
79036;SDS011;68434;59.896;30.474;2023-06-10T04:41:39;3.50;;;1.50;;
79036;SDS011;68434;59.896;30.474;2023-06-10T04:44:07;2.85;;;1.63;;
79036;SDS011;68434;59.896;30.474;2023-06-10T04:46:36;2.13;;;1.42;;
79036;SDS011;68434;59.896;30.474;2023-06-10T04:49:04;2.75;;;1.67;;
79036;SDS011;68434;59.896;30.474;2023-06-10T04:51:31;2.10;;;1.42;;
79036;SDS011;68434;59.896;30.474;2023-06-10T04:54:00;2.78;;;1.60;;
79036;SDS011;68434;59.896;30.474;2023-06-10T04:56:31;3.75;;;2.50;;
79036;SDS011;68434;59.896;30.474;2023-06-10T04:58:58;2.63;;;1.50;;
79036;SDS011;68434;59.896;30.474;2023-06-10T05:01:27;2.72;;;1.45;;
79036;SDS011;68434;59.896;30.474;2023-06-10T05:03:54;1.95;;;1.35;;
79036;SDS011;68434;59.896;30.474;2023-06-10T05:06:22;3.25;;;1.40;;
79036;SDS011;68434;59.896;30.474;2023-06-10T05:08:50;2.15;;;1.40;;
79036;SDS011;68434;59.896;30.474;2023-06-10T05:11:17;3.00;;;1.50;;
79036;SDS011;68434;59.896;30.474;2023-06-10T05:13:46;2.15;;;1.30;;
79036;SDS011;68434;59.896;30.474;2023-06-10T05:16:14;2.40;;;1.50;;
79036;SDS011;68434;59.896;30.474;2023-06-10T05:18:42;3.53;;;1.58;;
79036;SDS011;68434;59.896;30.474;2023-06-10T05:21:10;5.60;;;1.40;;
79036;SDS011;68434;59.896;30.474;2023-06-10T05:23:56;2.00;;;1.30;;
79036;SDS011;68434;59.896;30.474;2023-06-10T05:26:23;4.18;;;1.80;;
79036;SDS011;68434;59.896;30.474;2023-06-10T05:28:52;2.17;;;1.25;;
79036;SDS011;68434;59.896;30.474;2023-06-10T05:31:20;2.40;;;1.40;;
79036;SDS011;68434;59.896;30.474;2023-06-10T05:33:47;2.22;;;1.50;;
79036;SDS011;68434;59.896;30.474;2023-06-10T05:36:15;1.95;;;1.30;;
79036;SDS011;68434;59.896;30.474;2023-06-10T05:38:42;1.90;;;1.30;;
79036;SDS011;68434;59.896;30.474;2023-06-10T05:41:10;2.38;;;1.35;;
79036;SDS011;68434;59.896;30.474;2023-06-10T05:43:38;1.85;;;1.30;;
79036;SDS011;68434;59.896;30.474;2023-06-10T05:46:07;2.38;;;1.50;;
79036;SDS011;68434;59.896;30.474;2023-06-10T05:48:34;1.75;;;1.27;;
79036;SDS011;68434;59.896;30.474;2023-06-10T05:51:02;2.17;;;1.30;;
79036;SDS011;68434;59.896;30.474;2023-06-10T05:53:30;3.63;;;1.40;;
79036;SDS011;68434;59.896;30.474;2023-06-10T05:55:58;2.20;;;1.30;;
79036;SDS011;68434;59.896;30.474;2023-06-10T05:58:26;3.17;;;1.65;;
79036;SDS011;68434;59.896;30.474;2023-06-10T06:00:54;1.58;;;1.20;;
79036;SDS011;68434;59.896;30.474;2023-06-10T06:03:23;4.57;;;1.60;;
79036;SDS011;68434;59.896;30.474;2023-06-10T06:05:53;2.25;;;1.40;;
79036;SDS011;68434;59.896;30.474;2023-06-10T06:08:21;2.60;;;1.60;;
79036;SDS011;68434;59.896;30.474;2023-06-10T06:10:49;3.17;;;1.52;;
79036;SDS011;68434;59.896;30.474;2023-06-10T06:13:17;2.25;;;1.33;;
79036;SDS011;68434;59.896;30.474;2023-06-10T06:15:44;2.17;;;1.35;;
79036;SDS011;68434;59.896;30.474;2023-06-10T06:18:12;1.92;;;1.50;;
79036;SDS011;68434;59.896;30.474;2023-06-10T06:20:41;3.30;;;1.60;;
79036;SDS011;68434;59.896;30.474;2023-06-10T06:23:09;2.40;;;1.40;;
79036;SDS011;68434;59.896;30.474;2023-06-10T06:28:23;2.50;;;1.92;;
79036;SDS011;68434;59.896;30.474;2023-06-10T06:30:55;3.63;;;1.88;;
79036;SDS011;68434;59.896;30.474;2023-06-10T06:33:23;2.30;;;1.55;;
79036;SDS011;68434;59.896;30.474;2023-06-10T06:35:53;3.05;;;1.40;;
79036;SDS011;68434;59.896;30.474;2023-06-10T06:38:21;4.38;;;1.60;;
79036;SDS011;68434;59.896;30.474;2023-06-10T06:40:49;3.42;;;1.73;;
79036;SDS011;68434;59.896;30.474;2023-06-10T06:43:17;2.80;;;1.55;;
79036;SDS011;68434;59.896;30.474;2023-06-10T06:46:03;2.50;;;1.40;;
79036;SDS011;68434;59.896;30.474;2023-06-10T06:48:31;2.03;;;1.38;;
79036;SDS011;68434;59.896;30.474;2023-06-10T06:51:00;3.25;;;1.50;;
79036;SDS011;68434;59.896;30.474;2023-06-10T06:53:28;2.33;;;1.35;;
79036;SDS011;68434;59.896;30.474;2023-06-10T06:55:56;2.42;;;1.33;;
79036;SDS011;68434;59.896;30.474;2023-06-10T06:58:23;2.70;;;1.90;;
79036;SDS011;68434;59.896;30.474;2023-06-10T07:00:51;3.20;;;1.58;;
79036;SDS011;68434;59.896;30.474;2023-06-10T07:03:19;2.70;;;1.70;;
79036;SDS011;68434;59.896;30.474;2023-06-10T07:05:47;2.08;;;1.23;;
79036;SDS011;68434;59.896;30.474;2023-06-10T07:08:16;2.42;;;1.40;;
79036;SDS011;68434;59.896;30.474;2023-06-10T07:10:44;4.60;;;1.52;;
79036;SDS011;68434;59.896;30.474;2023-06-10T07:13:12;3.20;;;1.85;;
79036;SDS011;68434;59.896;30.474;2023-06-10T07:15:39;4.05;;;1.80;;
79036;SDS011;68434;59.896;30.474;2023-06-10T07:18:07;2.92;;;2.00;;
79036;SDS011;68434;59.896;30.474;2023-06-10T07:20:35;3.42;;;1.70;;
79036;SDS011;68434;59.896;30.474;2023-06-10T07:23:02;2.45;;;1.55;;
79036;SDS011;68434;59.896;30.474;2023-06-10T07:25:32;2.45;;;1.55;;
79036;SDS011;68434;59.896;30.474;2023-06-10T07:27:59;2.65;;;1.85;;
79036;SDS011;68434;59.896;30.474;2023-06-10T07:30:27;3.08;;;1.70;;
79036;SDS011;68434;59.896;30.474;2023-06-10T07:32:55;2.38;;;1.55;;
79036;SDS011;68434;59.896;30.474;2023-06-10T07:35:23;2.72;;;1.98;;
79036;SDS011;68434;59.896;30.474;2023-06-10T07:37:50;2.45;;;1.65;;
79036;SDS011;68434;59.896;30.474;2023-06-10T07:40:18;2.45;;;1.70;;
79036;SDS011;68434;59.896;30.474;2023-06-10T07:42:47;3.00;;;1.80;;
79036;SDS011;68434;59.896;30.474;2023-06-10T07:45:15;3.08;;;1.50;;
79036;SDS011;68434;59.896;30.474;2023-06-10T07:47:43;4.53;;;1.90;;
79036;SDS011;68434;59.896;30.474;2023-06-10T07:50:10;2.05;;;1.40;;
79036;SDS011;68434;59.896;30.474;2023-06-10T07:52:38;3.03;;;1.55;;
79036;SDS011;68434;59.896;30.474;2023-06-10T08:07:55;2.85;;;1.80;;
79036;SDS011;68434;59.896;30.474;2023-06-10T08:10:23;2.70;;;1.83;;
79036;SDS011;68434;59.896;30.474;2023-06-10T08:12:50;5.38;;;1.50;;
79036;SDS011;68434;59.896;30.474;2023-06-10T08:15:20;3.88;;;1.65;;
79036;SDS011;68434;59.896;30.474;2023-06-10T08:17:48;2.97;;;1.80;;
79036;SDS011;68434;59.896;30.474;2023-06-10T08:20:17;2.53;;;1.70;;
79036;SDS011;68434;59.896;30.474;2023-06-10T08:22:45;2.53;;;1.75;;
79036;SDS011;68434;59.896;30.474;2023-06-10T08:25:14;2.90;;;1.95;;
79036;SDS011;68434;59.896;30.474;2023-06-10T08:27:41;2.75;;;1.50;;
79036;SDS011;68434;59.896;30.474;2023-06-10T08:30:09;1.85;;;1.27;;
79036;SDS011;68434;59.896;30.474;2023-06-10T08:32:39;5.63;;;4.25;;
79036;SDS011;68434;59.896;30.474;2023-06-10T08:35:06;2.97;;;1.75;;
79036;SDS011;68434;59.896;30.474;2023-06-10T08:37:35;2.53;;;1.67;;
79036;SDS011;68434;59.896;30.474;2023-06-10T08:40:02;2.80;;;1.60;;
79036;SDS011;68434;59.896;30.474;2023-06-10T08:42:35;2.55;;;1.70;;
79036;SDS011;68434;59.896;30.474;2023-06-10T08:45:11;2.13;;;1.50;;
79036;SDS011;68434;59.896;30.474;2023-06-10T08:47:44;3.95;;;1.60;;
79036;SDS011;68434;59.896;30.474;2023-06-10T08:50:13;4.00;;;1.70;;
79036;SDS011;68434;59.896;30.474;2023-06-10T08:52:44;3.28;;;1.70;;
79036;SDS011;68434;59.896;30.474;2023-06-10T08:55:15;4.82;;;1.83;;
79036;SDS011;68434;59.896;30.474;2023-06-10T08:57:47;3.65;;;1.60;;
79036;SDS011;68434;59.896;30.474;2023-06-10T09:00:16;3.38;;;2.00;;
79036;SDS011;68434;59.896;30.474;2023-06-10T09:02:44;8.50;;;5.13;;
79036;SDS011;68434;59.896;30.474;2023-06-10T09:10:08;2.80;;;1.73;;
79036;SDS011;68434;59.896;30.474;2023-06-10T09:12:37;3.35;;;1.77;;
79036;SDS011;68434;59.896;30.474;2023-06-10T09:15:07;2.45;;;1.77;;
79036;SDS011;68434;59.896;30.474;2023-06-10T09:17:37;2.88;;;1.75;;
79036;SDS011;68434;59.896;30.474;2023-06-10T09:20:06;3.75;;;1.63;;
79036;SDS011;68434;59.896;30.474;2023-06-10T09:22:35;3.55;;;1.88;;
79036;SDS011;68434;59.896;30.474;2023-06-10T09:25:04;2.58;;;1.90;;
79036;SDS011;68434;59.896;30.474;2023-06-10T09:27:33;4.80;;;2.53;;
79036;SDS011;68434;59.896;30.474;2023-06-10T09:30:25;4.70;;;1.75;;
79036;SDS011;68434;59.896;30.474;2023-06-10T09:32:53;3.33;;;1.67;;
79036;SDS011;68434;59.896;30.474;2023-06-10T09:35:22;7.78;;;1.60;;
79036;SDS011;68434;59.896;30.474;2023-06-10T09:37:54;4.50;;;2.03;;
79036;SDS011;68434;59.896;30.474;2023-06-10T09:40:24;3.20;;;1.40;;
79036;SDS011;68434;59.896;30.474;2023-06-10T09:42:52;6.32;;;1.42;;
79036;SDS011;68434;59.896;30.474;2023-06-10T09:45:22;4.03;;;1.60;;
79036;SDS011;68434;59.896;30.474;2023-06-10T09:50:22;2.70;;;1.67;;
79036;SDS011;68434;59.896;30.474;2023-06-10T09:52:50;9.48;;;1.83;;
79036;SDS011;68434;59.896;30.474;2023-06-10T09:55:18;2.95;;;1.50;;
79036;SDS011;68434;59.896;30.474;2023-06-10T09:57:48;4.15;;;1.83;;
79036;SDS011;68434;59.896;30.474;2023-06-10T10:00:17;4.85;;;2.00;;
79036;SDS011;68434;59.896;30.474;2023-06-10T10:05:15;3.10;;;1.55;;
79036;SDS011;68434;59.896;30.474;2023-06-10T10:07:45;5.75;;;1.50;;
79036;SDS011;68434;59.896;30.474;2023-06-10T10:12:42;3.45;;;1.63;;
79036;SDS011;68434;59.896;30.474;2023-06-10T10:15:13;3.50;;;1.98;;
79036;SDS011;68434;59.896;30.474;2023-06-10T10:17:44;3.33;;;1.52;;
79036;SDS011;68434;59.896;30.474;2023-06-10T10:20:22;3.70;;;1.58;;
79036;SDS011;68434;59.896;30.474;2023-06-10T10:22:52;4.35;;;1.80;;
79036;SDS011;68434;59.896;30.474;2023-06-10T10:25:25;6.63;;;1.90;;
79036;SDS011;68434;59.896;30.474;2023-06-10T10:27:57;4.18;;;1.73;;
79036;SDS011;68434;59.896;30.474;2023-06-10T10:30:29;4.00;;;1.67;;
79036;SDS011;68434;59.896;30.474;2023-06-10T10:33:04;3.65;;;1.77;;
79036;SDS011;68434;59.896;30.474;2023-06-10T10:35:38;5.32;;;2.47;;
79036;SDS011;68434;59.896;30.474;2023-06-10T10:38:06;5.18;;;1.90;;
79036;SDS011;68434;59.896;30.474;2023-06-10T10:40:36;3.13;;;2.25;;
79036;SDS011;68434;59.896;30.474;2023-06-10T10:43:05;6.40;;;2.30;;
79036;SDS011;68434;59.896;30.474;2023-06-10T10:45:34;4.35;;;2.17;;
79036;SDS011;68434;59.896;30.474;2023-06-10T10:48:04;3.25;;;1.92;;
79036;SDS011;68434;59.896;30.474;2023-06-10T10:50:39;5.50;;;2.30;;
79036;SDS011;68434;59.896;30.474;2023-06-10T10:53:07;4.72;;;2.10;;
79036;SDS011;68434;59.896;30.474;2023-06-10T10:55:35;4.45;;;2.25;;
79036;SDS011;68434;59.896;30.474;2023-06-10T10:58:04;4.55;;;2.20;;
79036;SDS011;68434;59.896;30.474;2023-06-10T11:00:33;3.13;;;1.90;;
79036;SDS011;68434;59.896;30.474;2023-06-10T11:03:06;5.70;;;2.10;;
79036;SDS011;68434;59.896;30.474;2023-06-10T11:05:39;4.20;;;1.90;;
79036;SDS011;68434;59.896;30.474;2023-06-10T11:08:10;3.88;;;1.80;;
79036;SDS011;68434;59.896;30.474;2023-06-10T11:15:37;4.05;;;2.20;;
79036;SDS011;68434;59.896;30.474;2023-06-10T11:18:07;4.20;;;2.05;;
79036;SDS011;68434;59.896;30.474;2023-06-10T11:20:50;3.13;;;1.80;;
79036;SDS011;68434;59.896;30.474;2023-06-10T11:23:33;3.38;;;1.95;;
79036;SDS011;68434;59.896;30.474;2023-06-10T11:26:15;5.05;;;2.00;;
79036;SDS011;68434;59.896;30.474;2023-06-10T11:29:09;3.70;;;1.73;;
79036;SDS011;68434;59.896;30.474;2023-06-10T11:31:43;3.50;;;2.15;;
79036;SDS011;68434;59.896;30.474;2023-06-10T11:34:13;3.92;;;2.30;;
79036;SDS011;68434;59.896;30.474;2023-06-10T11:36:42;3.78;;;2.40;;
79036;SDS011;68434;59.896;30.474;2023-06-10T11:39:12;5.25;;;2.42;;
79036;SDS011;68434;59.896;30.474;2023-06-10T11:41:40;4.35;;;2.60;;
79036;SDS011;68434;59.896;30.474;2023-06-10T11:44:09;4.68;;;3.13;;
79036;SDS011;68434;59.896;30.474;2023-06-10T11:46:37;5.60;;;3.08;;
79036;SDS011;68434;59.896;30.474;2023-06-10T11:49:06;10.40;;;3.28;;
79036;SDS011;68434;59.896;30.474;2023-06-10T11:51:34;12.10;;;4.32;;
79036;SDS011;68434;59.896;30.474;2023-06-10T11:54:08;13.85;;;4.45;;
79036;SDS011;68434;59.896;30.474;2023-06-10T11:56:36;13.25;;;4.65;;
79036;SDS011;68434;59.896;30.474;2023-06-10T11:59:04;14.05;;;5.32;;
79036;SDS011;68434;59.896;30.474;2023-06-10T12:01:35;8.20;;;4.15;;
79036;SDS011;68434;59.896;30.474;2023-06-10T12:04:04;11.40;;;4.22;;
79036;SDS011;68434;59.896;30.474;2023-06-10T12:06:40;9.15;;;4.38;;
79036;SDS011;68434;59.896;30.474;2023-06-10T12:09:14;10.07;;;4.57;;
79036;SDS011;68434;59.896;30.474;2023-06-10T12:11:43;10.98;;;4.32;;
79036;SDS011;68434;59.896;30.474;2023-06-10T12:14:12;12.85;;;4.10;;
79036;SDS011;68434;59.896;30.474;2023-06-10T12:16:40;12.43;;;4.10;;
79036;SDS011;68434;59.896;30.474;2023-06-10T12:19:15;11.23;;;4.18;;
79036;SDS011;68434;59.896;30.474;2023-06-10T12:21:42;8.45;;;3.40;;
79036;SDS011;68434;59.896;30.474;2023-06-10T12:24:12;10.48;;;4.05;;
79036;SDS011;68434;59.896;30.474;2023-06-10T12:26:42;10.15;;;3.70;;
79036;SDS011;68434;59.896;30.474;2023-06-10T12:29:20;8.35;;;3.20;;
79036;SDS011;68434;59.896;30.474;2023-06-10T12:31:58;5.82;;;2.95;;
79036;SDS011;68434;59.896;30.474;2023-06-10T12:34:38;7.05;;;2.88;;
79036;SDS011;68434;59.896;30.474;2023-06-10T12:37:09;9.88;;;3.60;;
79036;SDS011;68434;59.896;30.474;2023-06-10T12:39:39;9.00;;;3.00;;
79036;SDS011;68434;59.896;30.474;2023-06-10T12:42:10;6.75;;;3.13;;
79036;SDS011;68434;59.896;30.474;2023-06-10T12:44:39;6.25;;;2.97;;
79036;SDS011;68434;59.896;30.474;2023-06-10T12:49:38;7.22;;;2.80;;
79036;SDS011;68434;59.896;30.474;2023-06-10T12:52:06;6.05;;;2.60;;
79036;SDS011;68434;59.896;30.474;2023-06-10T12:54:34;7.70;;;2.83;;
79036;SDS011;68434;59.896;30.474;2023-06-10T12:57:02;4.68;;;2.30;;
79036;SDS011;68434;59.896;30.474;2023-06-10T13:01:59;5.20;;;2.60;;
79036;SDS011;68434;59.896;30.474;2023-06-10T13:04:26;8.70;;;2.63;;
79036;SDS011;68434;59.896;30.474;2023-06-10T13:06:54;4.45;;;2.30;;
79036;SDS011;68434;59.896;30.474;2023-06-10T13:09:22;8.05;;;2.83;;
79036;SDS011;68434;59.896;30.474;2023-06-10T13:11:50;9.10;;;2.47;;
79036;SDS011;68434;59.896;30.474;2023-06-10T13:14:18;10.63;;;2.78;;
79036;SDS011;68434;59.896;30.474;2023-06-10T13:16:47;5.55;;;2.20;;
79036;SDS011;68434;59.896;30.474;2023-06-10T13:19:15;5.22;;;2.15;;
79036;SDS011;68434;59.896;30.474;2023-06-10T13:21:43;8.05;;;2.33;;
79036;SDS011;68434;59.896;30.474;2023-06-10T13:24:11;6.55;;;1.92;;
79036;SDS011;68434;59.896;30.474;2023-06-10T13:26:38;7.65;;;2.47;;
79036;SDS011;68434;59.896;30.474;2023-06-10T13:29:06;5.22;;;2.47;;
79036;SDS011;68434;59.896;30.474;2023-06-10T13:31:39;6.35;;;2.80;;
79036;SDS011;68434;59.896;30.474;2023-06-10T13:34:09;6.78;;;2.78;;
79036;SDS011;68434;59.896;30.474;2023-06-10T13:36:37;7.93;;;2.70;;
79036;SDS011;68434;59.896;30.474;2023-06-10T13:39:05;7.90;;;3.05;;
79036;SDS011;68434;59.896;30.474;2023-06-10T13:41:33;6.40;;;2.50;;
79036;SDS011;68434;59.896;30.474;2023-06-10T13:44:01;5.65;;;2.83;;
79036;SDS011;68434;59.896;30.474;2023-06-10T13:46:28;6.85;;;2.97;;
79036;SDS011;68434;59.896;30.474;2023-06-10T13:48:56;8.57;;;3.17;;
79036;SDS011;68434;59.896;30.474;2023-06-10T13:51:25;6.80;;;3.78;;
79036;SDS011;68434;59.896;30.474;2023-06-10T13:53:53;5.72;;;3.08;;
79036;SDS011;68434;59.896;30.474;2023-06-10T13:56:21;5.70;;;3.13;;
79036;SDS011;68434;59.896;30.474;2023-06-10T13:58:49;8.20;;;3.72;;
79036;SDS011;68434;59.896;30.474;2023-06-10T14:01:16;7.80;;;3.60;;
79036;SDS011;68434;59.896;30.474;2023-06-10T14:03:44;8.98;;;3.63;;
79036;SDS011;68434;59.896;30.474;2023-06-10T14:06:12;5.97;;;4.13;;
79036;SDS011;68434;59.896;30.474;2023-06-10T14:08:45;5.72;;;3.40;;
79036;SDS011;68434;59.896;30.474;2023-06-10T14:11:13;8.13;;;3.88;;
79036;SDS011;68434;59.896;30.474;2023-06-10T14:13:41;6.97;;;3.78;;
79036;SDS011;68434;59.896;30.474;2023-06-10T14:16:08;6.55;;;3.80;;
79036;SDS011;68434;59.896;30.474;2023-06-10T14:18:36;7.43;;;4.15;;
79036;SDS011;68434;59.896;30.474;2023-06-10T14:21:04;7.68;;;4.30;;
79036;SDS011;68434;59.896;30.474;2023-06-10T14:23:32;7.13;;;3.72;;
79036;SDS011;68434;59.896;30.474;2023-06-10T14:26:01;10.52;;;4.88;;
79036;SDS011;68434;59.896;30.474;2023-06-10T14:28:29;11.98;;;4.97;;
79036;SDS011;68434;59.896;30.474;2023-06-10T14:30:56;9.43;;;4.72;;
79036;SDS011;68434;59.896;30.474;2023-06-10T14:33:24;9.60;;;4.55;;
79036;SDS011;68434;59.896;30.474;2023-06-10T14:35:52;10.18;;;5.07;;
79036;SDS011;68434;59.896;30.474;2023-06-10T14:38:20;9.57;;;5.60;;
79036;SDS011;68434;59.896;30.474;2023-06-10T14:40:47;9.75;;;5.63;;
79036;SDS011;68434;59.896;30.474;2023-06-10T14:43:17;8.98;;;4.90;;
79036;SDS011;68434;59.896;30.474;2023-06-10T14:45:44;7.45;;;5.20;;
79036;SDS011;68434;59.896;30.474;2023-06-10T14:48:12;7.25;;;4.40;;
79036;SDS011;68434;59.896;30.474;2023-06-10T14:50:40;8.65;;;4.43;;
79036;SDS011;68434;59.896;30.474;2023-06-10T14:53:11;7.60;;;4.32;;
79036;SDS011;68434;59.896;30.474;2023-06-10T14:55:39;7.35;;;4.80;;
79036;SDS011;68434;59.896;30.474;2023-06-10T14:58:07;9.82;;;4.70;;
79036;SDS011;68434;59.896;30.474;2023-06-10T15:00:36;7.68;;;4.40;;
79036;SDS011;68434;59.896;30.474;2023-06-10T15:03:04;7.63;;;4.82;;
79036;SDS011;68434;59.896;30.474;2023-06-10T15:05:32;7.03;;;4.80;;
79036;SDS011;68434;59.896;30.474;2023-06-10T15:08:00;8.98;;;4.85;;
79036;SDS011;68434;59.896;30.474;2023-06-10T15:10:28;9.10;;;4.53;;
79036;SDS011;68434;59.896;30.474;2023-06-10T15:12:56;6.85;;;4.70;;
79036;SDS011;68434;59.896;30.474;2023-06-10T15:15:24;13.32;;;5.13;;
79036;SDS011;68434;59.896;30.474;2023-06-10T15:17:53;10.88;;;4.68;;
79036;SDS011;68434;59.896;30.474;2023-06-10T15:20:21;12.00;;;4.75;;
79036;SDS011;68434;59.896;30.474;2023-06-10T15:22:49;10.45;;;3.95;;
79036;SDS011;68434;59.896;30.474;2023-06-10T15:25:17;9.23;;;4.80;;
79036;SDS011;68434;59.896;30.474;2023-06-10T15:27:44;6.70;;;4.47;;